sensor_id;sensor_type;location;lat;lon;timestamp;pressure;altitude;pressure_sealevel;temperature;humidity
13695;BME280;6919;52.344;14.518;2022-07-17T00:02:07;101554.72;;;14.09;100.00
13695;BME280;6919;52.344;14.518;2022-07-17T00:04:36;101550.94;;;14.02;100.00
13695;BME280;6919;52.344;14.518;2022-07-17T00:07:04;101554.66;;;14.01;100.00
13695;BME280;6919;52.344;14.518;2022-07-17T00:09:32;101554.41;;;13.94;100.00
13695;BME280;6919;52.344;14.518;2022-07-17T00:12:00;101554.50;;;13.85;100.00
13695;BME280;6919;52.344;14.518;2022-07-17T00:14:30;101564.00;;;13.79;100.00
13695;BME280;6919;52.344;14.518;2022-07-17T00:16:58;101563.78;;;13.73;100.00
13695;BME280;6919;52.344;14.518;2022-07-17T00:19:27;101560.75;;;13.58;100.00
13695;BME280;6919;52.344;14.518;2022-07-17T00:21:55;101558.22;;;13.57;100.00
13695;BME280;6919;52.344;14.518;2022-07-17T00:24:23;101567.41;;;13.54;100.00
13695;BME280;6919;52.344;14.518;2022-07-17T00:26:52;101565.88;;;13.52;100.00
13695;BME280;6919;52.344;14.518;2022-07-17T00:29:20;101570.25;;;13.53;100.00
13695;BME280;6919;52.344;14.518;2022-07-17T00:31:50;101567.03;;;13.49;100.00
13695;BME280;6919;52.344;14.518;2022-07-17T00:34:18;101570.59;;;13.40;100.00
13695;BME280;6919;52.344;14.518;2022-07-17T00:36:47;101571.66;;;13.30;100.00
13695;BME280;6919;52.344;14.518;2022-07-17T00:39:15;101577.78;;;13.22;100.00
13695;BME280;6919;52.344;14.518;2022-07-17T00:41:43;101573.81;;;13.17;100.00
13695;BME280;6919;52.344;14.518;2022-07-17T00:44:12;101580.50;;;13.13;100.00
13695;BME280;6919;52.344;14.518;2022-07-17T00:46:42;101579.09;;;13.09;100.00
13695;BME280;6919;52.344;14.518;2022-07-17T00:49:12;101585.22;;;13.11;100.00
13695;BME280;6919;52.344;14.518;2022-07-17T00:51:40;101582.66;;;13.09;100.00
13695;BME280;6919;52.344;14.518;2022-07-17T00:54:11;101582.66;;;13.09;100.00
13695;BME280;6919;52.344;14.518;2022-07-17T00:56:42;101581.09;;;13.07;100.00
13695;BME280;6919;52.344;14.518;2022-07-17T00:59:15;101588.31;;;13.06;100.00
13695;BME280;6919;52.344;14.518;2022-07-17T01:01:43;101590.44;;;13.03;100.00
13695;BME280;6919;52.344;14.518;2022-07-17T01:04:13;101575.28;;;12.92;100.00
13695;BME280;6919;52.344;14.518;2022-07-17T01:06:42;101579.97;;;12.90;100.00
13695;BME280;6919;52.344;14.518;2022-07-17T01:09:10;101586.22;;;12.91;100.00
13695;BME280;6919;52.344;14.518;2022-07-17T01:11:40;101582.41;;;12.84;100.00
13695;BME280;6919;52.344;14.518;2022-07-17T01:14:08;101587.81;;;12.74;100.00
13695;BME280;6919;52.344;14.518;2022-07-17T01:16:37;101584.69;;;12.79;100.00
13695;BME280;6919;52.344;14.518;2022-07-17T01:19:07;101583.97;;;12.77;100.00
13695;BME280;6919;52.344;14.518;2022-07-17T01:21:43;101586.63;;;12.86;100.00
13695;BME280;6919;52.344;14.518;2022-07-17T01:24:12;101593.44;;;12.81;100.00
13695;BME280;6919;52.344;14.518;2022-07-17T01:26:42;101584.69;;;12.79;100.00
13695;BME280;6919;52.344;14.518;2022-07-17T01:29:13;101583.81;;;12.78;100.00
13695;BME280;6919;52.344;14.518;2022-07-17T01:31:44;101586.38;;;12.80;100.00
13695;BME280;6919;52.344;14.518;2022-07-17T01:34:12;101587.06;;;12.82;100.00
13695;BME280;6919;52.344;14.518;2022-07-17T01:36:42;101586.94;;;12.74;100.00
13695;BME280;6919;52.344;14.518;2022-07-17T01:39:10;101582.13;;;12.68;100.00
13695;BME280;6919;52.344;14.518;2022-07-17T01:41:38;101580.59;;;12.65;100.00
13695;BME280;6919;52.344;14.518;2022-07-17T01:44:07;101586.09;;;12.64;100.00
13695;BME280;6919;52.344;14.518;2022-07-17T01:46:36;101581.72;;;12.63;100.00
13695;BME280;6919;52.344;14.518;2022-07-17T01:49:04;101577.19;;;12.63;100.00
13695;BME280;6919;52.344;14.518;2022-07-17T01:51:32;101578.88;;;12.64;100.00
13695;BME280;6919;52.344;14.518;2022-07-17T01:54:02;101568.81;;;12.66;100.00
13695;BME280;6919;52.344;14.518;2022-07-17T01:56:30;101574.66;;;12.62;100.00
13695;BME280;6919;52.344;14.518;2022-07-17T01:58:59;101571.38;;;12.58;100.00
13695;BME280;6919;52.344;14.518;2022-07-17T02:01:28;101566.59;;;12.62;100.00
13695;BME280;6919;52.344;14.518;2022-07-17T02:03:56;101571.69;;;12.65;100.00
13695;BME280;6919;52.344;14.518;2022-07-17T02:06:25;101574.66;;;12.62;100.00
13695;BME280;6919;52.344;14.518;2022-07-17T02:08:53;101578.44;;;12.59;100.00
13695;BME280;6919;52.344;14.518;2022-07-17T02:11:23;101574.22;;;12.57;100.00
13695;BME280;6919;52.344;14.518;2022-07-17T02:13:53;101572.38;;;12.57;100.00
13695;BME280;6919;52.344;14.518;2022-07-17T02:16:21;101563.59;;;12.55;100.00
13695;BME280;6919;52.344;14.518;2022-07-17T02:18:49;101560.34;;;12.52;100.00
13695;BME280;6919;52.344;14.518;2022-07-17T02:21:17;101568.44;;;12.52;100.00
13695;BME280;6919;52.344;14.518;2022-07-17T02:23:46;101561.63;;;12.48;100.00
13695;BME280;6919;52.344;14.518;2022-07-17T02:26:14;101556.69;;;12.43;100.00
13695;BME280;6919;52.344;14.518;2022-07-17T02:28:43;101560.09;;;12.45;100.00
13695;BME280;6919;52.344;14.518;2022-07-17T02:31:12;101566.44;;;12.35;100.00
13695;BME280;6919;52.344;14.518;2022-07-17T02:33:40;101570.69;;;12.37;100.00
13695;BME280;6919;52.344;14.518;2022-07-17T02:36:08;101569.16;;;12.25;100.00
13695;BME280;6919;52.344;14.518;2022-07-17T02:38:36;101566.88;;;12.21;100.00
13695;BME280;6919;52.344;14.518;2022-07-17T02:41:05;101559.22;;;12.16;100.00
13695;BME280;6919;52.344;14.518;2022-07-17T02:43:33;101566.00;;;12.20;100.00
13695;BME280;6919;52.344;14.518;2022-07-17T02:46:04;101563.78;;;12.16;100.00
13695;BME280;6919;52.344;14.518;2022-07-17T02:48:32;101571.41;;;12.11;100.00
13695;BME280;6919;52.344;14.518;2022-07-17T02:51:01;101561.91;;;12.07;100.00
13695;BME280;6919;52.344;14.518;2022-07-17T02:53:29;101565.88;;;12.03;100.00
13695;BME280;6919;52.344;14.518;2022-07-17T02:55:57;101571.38;;;12.01;100.00
13695;BME280;6919;52.344;14.518;2022-07-17T02:58:25;101569.84;;;11.99;100.00
13695;BME280;6919;52.344;14.518;2022-07-17T03:00:53;101572.66;;;11.97;100.00
13695;BME280;6919;52.344;14.518;2022-07-17T03:03:23;101574.75;;;11.93;100.00
13695;BME280;6919;52.344;14.518;2022-07-17T03:05:51;101576.91;;;11.90;100.00
13695;BME280;6919;52.344;14.518;2022-07-17T03:08:19;101575.91;;;11.91;100.00
13695;BME280;6919;52.344;14.518;2022-07-17T03:10:48;101576.75;;;11.82;100.00
13695;BME280;6919;52.344;14.518;2022-07-17T03:13:16;101578.72;;;11.80;100.00
13695;BME280;6919;52.344;14.518;2022-07-17T03:15:44;101576.44;;;11.75;100.00
13695;BME280;6919;52.344;14.518;2022-07-17T03:18:13;101581.84;;;11.85;100.00
13695;BME280;6919;52.344;14.518;2022-07-17T03:20:42;101587.91;;;11.87;100.00
13695;BME280;6919;52.344;14.518;2022-07-17T03:23:10;101591.75;;;11.84;100.00
13695;BME280;6919;52.344;14.518;2022-07-17T03:25:38;101601.63;;;11.84;100.00
13695;BME280;6919;52.344;14.518;2022-07-17T03:28:07;101596.22;;;11.74;100.00
13695;BME280;6919;52.344;14.518;2022-07-17T03:30:35;101597.13;;;11.84;100.00
13695;BME280;6919;52.344;14.518;2022-07-17T03:33:03;101592.88;;;11.82;100.00
13695;BME280;6919;52.344;14.518;2022-07-17T03:35:32;101594.84;;;11.89;100.00
13695;BME280;6919;52.344;14.518;2022-07-17T03:38:01;101600.34;;;11.88;100.00
13695;BME280;6919;52.344;14.518;2022-07-17T03:40:29;101603.38;;;11.95;100.00
13695;BME280;6919;52.344;14.518;2022-07-17T03:42:58;101610.28;;;11.88;100.00
13695;BME280;6919;52.344;14.518;2022-07-17T03:45:26;101622.84;;;11.87;100.00
13695;BME280;6919;52.344;14.518;2022-07-17T03:47:54;101620.00;;;11.79;100.00
13695;BME280;6919;52.344;14.518;2022-07-17T03:50:22;101630.66;;;11.90;100.00
13695;BME280;6919;52.344;14.518;2022-07-17T03:52:51;101611.56;;;12.03;100.00
13695;BME280;6919;52.344;14.518;2022-07-17T03:55:21;101626.72;;;12.04;100.00
13695;BME280;6919;52.344;14.518;2022-07-17T03:57:49;101629.53;;;12.02;100.00
13695;BME280;6919;52.344;14.518;2022-07-17T04:00:17;101629.41;;;12.04;100.00
13695;BME280;6919;52.344;14.518;2022-07-17T04:02:46;101642.41;;;11.99;100.00
13695;BME280;6919;52.344;14.518;2022-07-17T04:05:14;101637.72;;;12.01;100.00
13695;BME280;6919;52.344;14.518;2022-07-17T04:07:43;101644.13;;;12.09;100.00
13695;BME280;6919;52.344;14.518;2022-07-17T04:10:14;101644.97;;;12.10;100.00
13695;BME280;6919;52.344;14.518;2022-07-17T04:12:44;101643.03;;;12.12;100.00
13695;BME280;6919;52.344;14.518;2022-07-17T04:15:12;101653.06;;;12.19;100.00
13695;BME280;6919;52.344;14.518;2022-07-17T04:18:00;101652.38;;;12.27;100.00
13695;BME280;6919;52.344;14.518;2022-07-17T04:20:28;101655.78;;;12.38;100.00
13695;BME280;6919;52.344;14.518;2022-07-17T04:22:57;101657.06;;;12.44;100.00
13695;BME280;6919;52.344;14.518;2022-07-17T04:25:26;101651.09;;;12.59;100.00
13695;BME280;6919;52.344;14.518;2022-07-17T04:27:55;101656.66;;;12.67;100.00
13695;BME280;6919;52.344;14.518;2022-07-17T04:30:24;101662.31;;;12.74;100.00
13695;BME280;6919;52.344;14.518;2022-07-17T04:32:52;101658.31;;;12.87;100.00
13695;BME280;6919;52.344;14.518;2022-07-17T04:35:21;101654.06;;;12.85;100.00
13695;BME280;6919;52.344;14.518;2022-07-17T04:37:49;101665.84;;;13.03;100.00
13695;BME280;6919;52.344;14.518;2022-07-17T04:40:17;101666.28;;;12.98;100.00
13695;BME280;6919;52.344;14.518;2022-07-17T04:42:46;101669.81;;;13.18;100.00
13695;BME280;6919;52.344;14.518;2022-07-17T04:45:15;101674.88;;;13.30;100.00
13695;BME280;6919;52.344;14.518;2022-07-17T04:47:43;101680.25;;;13.40;100.00
13695;BME280;6919;52.344;14.518;2022-07-17T04:50:12;101690.25;;;13.57;100.00
13695;BME280;6919;52.344;14.518;2022-07-17T04:52:40;101678.03;;;13.53;100.00
13695;BME280;6919;52.344;14.518;2022-07-17T04:55:08;101683.25;;;13.73;100.00
13695;BME280;6919;52.344;14.518;2022-07-17T04:57:36;101686.13;;;13.89;100.00
13695;BME280;6919;52.344;14.518;2022-07-17T05:00:08;101693.53;;;14.14;100.00
13695;BME280;6919;52.344;14.518;2022-07-17T05:02:38;101689.97;;;14.23;100.00
13695;BME280;6919;52.344;14.518;2022-07-17T05:05:08;101691.31;;;14.10;100.00
13695;BME280;6919;52.344;14.518;2022-07-17T05:07:36;101690.00;;;14.14;100.00
13695;BME280;6919;52.344;14.518;2022-07-17T05:10:05;101696.53;;;14.11;100.00
13695;BME280;6919;52.344;14.518;2022-07-17T05:12:36;101696.38;;;14.13;100.00
13695;BME280;6919;52.344;14.518;2022-07-17T05:15:05;101703.72;;;14.47;100.00
13695;BME280;6919;52.344;14.518;2022-07-17T05:17:34;101696.22;;;14.41;100.00
13695;BME280;6919;52.344;14.518;2022-07-17T05:20:06;101695.56;;;14.92;100.00
13695;BME280;6919;52.344;14.518;2022-07-17T05:22:34;101698.09;;;14.94;100.00
13695;BME280;6919;52.344;14.518;2022-07-17T05:25:04;101700.00;;;15.19;100.00
13695;BME280;6919;52.344;14.518;2022-07-17T05:27:32;101700.31;;;15.16;100.00
13695;BME280;6919;52.344;14.518;2022-07-17T05:30:00;101703.81;;;15.51;100.00
13695;BME280;6919;52.344;14.518;2022-07-17T05:32:29;101707.31;;;15.69;100.00
13695;BME280;6919;52.344;14.518;2022-07-17T05:34:57;101696.06;;;15.56;100.00
13695;BME280;6919;52.344;14.518;2022-07-17T05:37:26;101705.50;;;15.78;100.00
13695;BME280;6919;52.344;14.518;2022-07-17T05:39:54;101701.69;;;15.96;100.00
13695;BME280;6919;52.344;14.518;2022-07-17T05:42:23;101702.56;;;16.46;100.00
13695;BME280;6919;52.344;14.518;2022-07-17T05:44:51;101707.03;;;16.22;100.00
13695;BME280;6919;52.344;14.518;2022-07-17T05:47:19;101707.88;;;16.64;100.00
13695;BME280;6919;52.344;14.518;2022-07-17T05:49:47;101715.66;;;16.25;100.00
13695;BME280;6919;52.344;14.518;2022-07-17T05:52:15;101714.81;;;16.66;100.00
13695;BME280;6919;52.344;14.518;2022-07-17T05:54:44;101721.25;;;16.57;100.00
13695;BME280;6919;52.344;14.518;2022-07-17T05:57:13;101716.03;;;16.88;100.00
13695;BME280;6919;52.344;14.518;2022-07-17T05:59:41;101724.13;;;16.22;100.00
13695;BME280;6919;52.344;14.518;2022-07-17T06:02:10;101718.75;;;16.38;100.00
13695;BME280;6919;52.344;14.518;2022-07-17T06:04:38;101714.28;;;16.55;100.00
13695;BME280;6919;52.344;14.518;2022-07-17T06:07:07;101719.78;;;16.95;100.00
13695;BME280;6919;52.344;14.518;2022-07-17T06:09:35;101725.84;;;16.89;100.00
13695;BME280;6919;52.344;14.518;2022-07-17T06:12:05;101713.50;;;17.02;100.00
13695;BME280;6919;52.344;14.518;2022-07-17T06:14:33;101723.81;;;16.75;100.00
13695;BME280;6919;52.344;14.518;2022-07-17T06:17:01;101717.88;;;16.87;100.00
13695;BME280;6919;52.344;14.518;2022-07-17T06:19:30;101714.88;;;17.14;100.00
13695;BME280;6919;52.344;14.518;2022-07-17T06:21:58;101721.63;;;16.94;100.00
13695;BME280;6919;52.344;14.518;2022-07-17T06:24:26;101720.41;;;16.73;100.00
13695;BME280;6919;52.344;14.518;2022-07-17T06:26:54;101714.97;;;16.73;100.00
13695;BME280;6919;52.344;14.518;2022-07-17T06:29:23;101716.88;;;16.88;100.00
13695;BME280;6919;52.344;14.518;2022-07-17T06:31:52;101717.41;;;17.16;100.00
13695;BME280;6919;52.344;14.518;2022-07-17T06:34:20;101721.63;;;16.86;100.00
13695;BME280;6919;52.344;14.518;2022-07-17T06:36:48;101718.38;;;16.25;100.00
13695;BME280;6919;52.344;14.518;2022-07-17T06:39:17;101722.63;;;16.77;100.00
13695;BME280;6919;52.344;14.518;2022-07-17T06:41:45;101725.47;;;16.68;100.00
13695;BME280;6919;52.344;14.518;2022-07-17T06:44:13;101727.06;;;17.51;100.00
13695;BME280;6919;52.344;14.518;2022-07-17T06:46:42;101727.06;;;17.26;98.67
13695;BME280;6919;52.344;14.518;2022-07-17T06:49:10;101734.09;;;17.84;97.93
13695;BME280;6919;52.344;14.518;2022-07-17T06:51:39;101743.19;;;18.15;91.46
13695;BME280;6919;52.344;14.518;2022-07-17T06:54:07;101747.88;;;18.29;89.82
13695;BME280;6919;52.344;14.518;2022-07-17T06:56:36;101744.16;;;18.22;93.03
13695;BME280;6919;52.344;14.518;2022-07-17T06:59:05;101746.53;;;17.06;100.00
13695;BME280;6919;52.344;14.518;2022-07-17T07:01:34;101750.94;;;16.99;100.00
13695;BME280;6919;52.344;14.518;2022-07-17T07:04:09;101741.63;;;16.93;100.00
13695;BME280;6919;52.344;14.518;2022-07-17T07:06:37;101743.16;;;17.20;100.00
13695;BME280;6919;52.344;14.518;2022-07-17T07:09:05;101740.78;;;17.65;100.00
13695;BME280;6919;52.344;14.518;2022-07-17T07:11:40;101742.22;;;18.00;100.00
13695;BME280;6919;52.344;14.518;2022-07-17T07:14:08;101741.53;;;18.75;93.68
13695;BME280;6919;52.344;14.518;2022-07-17T07:16:36;101745.13;;;18.45;87.79
13695;BME280;6919;52.344;14.518;2022-07-17T07:19:05;101747.34;;;18.41;89.03
13695;BME280;6919;52.344;14.518;2022-07-17T07:21:34;101740.03;;;18.42;85.76
13695;BME280;6919;52.344;14.518;2022-07-17T07:24:04;101742.19;;;18.08;90.16
13695;BME280;6919;52.344;14.518;2022-07-17T07:26:32;101741.59;;;18.67;82.76
13695;BME280;6919;52.344;14.518;2022-07-17T07:29:00;101756.00;;;18.37;85.69
13695;BME280;6919;52.344;14.518;2022-07-17T07:31:29;101760.28;;;18.62;88.14
13695;BME280;6919;52.344;14.518;2022-07-17T07:33:58;101752.72;;;18.03;83.17
13695;BME280;6919;52.344;14.518;2022-07-17T07:36:26;101753.81;;;17.37;86.52
13695;BME280;6919;52.344;14.518;2022-07-17T07:38:57;101757.41;;;17.46;85.65
13695;BME280;6919;52.344;14.518;2022-07-17T07:41:26;101765.03;;;17.51;88.28
13695;BME280;6919;52.344;14.518;2022-07-17T07:43:54;101762.78;;;17.78;87.88
13695;BME280;6919;52.344;14.518;2022-07-17T07:46:22;101765.38;;;18.26;84.70
13695;BME280;6919;52.344;14.518;2022-07-17T07:48:51;101763.19;;;18.60;81.89
13695;BME280;6919;52.344;14.518;2022-07-17T07:51:19;101764.25;;;19.35;79.11
13695;BME280;6919;52.344;14.518;2022-07-17T07:54:09;101758.59;;;20.10;72.44
13695;BME280;6919;52.344;14.518;2022-07-17T07:56:37;101762.81;;;20.13;69.52
13695;BME280;6919;52.344;14.518;2022-07-17T07:59:05;101757.97;;;19.71;68.30
13695;BME280;6919;52.344;14.518;2022-07-17T08:01:33;101762.41;;;19.50;69.93
13695;BME280;6919;52.344;14.518;2022-07-17T08:04:02;101767.47;;;19.53;69.58
13695;BME280;6919;52.344;14.518;2022-07-17T08:06:30;101768.69;;;19.50;72.22
13695;BME280;6919;52.344;14.518;2022-07-17T08:08:59;101775.53;;;19.24;71.37
13695;BME280;6919;52.344;14.518;2022-07-17T08:11:28;101769.41;;;18.99;72.26
13695;BME280;6919;52.344;14.518;2022-07-17T08:13:56;101763.59;;;19.02;70.12
13695;BME280;6919;52.344;14.518;2022-07-17T08:16:34;101767.13;;;19.56;69.53
13695;BME280;6919;52.344;14.518;2022-07-17T08:19:02;101768.53;;;19.52;68.60
13695;BME280;6919;52.344;14.518;2022-07-17T08:21:30;101774.16;;;19.28;72.67
13695;BME280;6919;52.344;14.518;2022-07-17T08:23:59;101777.13;;;19.41;70.78
13695;BME280;6919;52.344;14.518;2022-07-17T08:26:28;101781.69;;;19.63;71.08
13695;BME280;6919;52.344;14.518;2022-07-17T08:28:57;101787.44;;;18.70;76.02
13695;BME280;6919;52.344;14.518;2022-07-17T08:31:26;101780.34;;;19.14;71.39
13695;BME280;6919;52.344;14.518;2022-07-17T08:33:54;101786.50;;;19.08;71.17
13695;BME280;6919;52.344;14.518;2022-07-17T08:36:22;101776.31;;;19.55;70.50
13695;BME280;6919;52.344;14.518;2022-07-17T08:38:50;101773.84;;;19.82;65.63
13695;BME280;6919;52.344;14.518;2022-07-17T08:41:19;101777.91;;;20.01;65.90
13695;BME280;6919;52.344;14.518;2022-07-17T08:43:50;101790.34;;;20.18;63.76
13695;BME280;6919;52.344;14.518;2022-07-17T08:46:23;101790.16;;;19.45;64.69
13695;BME280;6919;52.344;14.518;2022-07-17T08:48:57;101795.50;;;19.76;65.68
13695;BME280;6919;52.344;14.518;2022-07-17T08:51:27;101796.66;;;19.96;64.61
13695;BME280;6919;52.344;14.518;2022-07-17T08:53:57;101794.69;;;19.30;65.71
13695;BME280;6919;52.344;14.518;2022-07-17T08:56:26;101787.03;;;18.81;70.55
13695;BME280;6919;52.344;14.518;2022-07-17T08:58:57;101793.22;;;18.97;69.04
13695;BME280;6919;52.344;14.518;2022-07-17T09:01:25;101796.59;;;19.22;68.55
13695;BME280;6919;52.344;14.518;2022-07-17T09:03:56;101795.19;;;19.34;68.31
13695;BME280;6919;52.344;14.518;2022-07-17T09:06:26;101792.34;;;19.05;72.69
13695;BME280;6919;52.344;14.518;2022-07-17T09:09:03;101797.28;;;19.24;68.36
13695;BME280;6919;52.344;14.518;2022-07-17T09:11:42;101794.94;;;19.66;67.23
13695;BME280;6919;52.344;14.518;2022-07-17T09:14:12;101800.28;;;19.37;67.19
13695;BME280;6919;52.344;14.518;2022-07-17T09:16:53;101808.84;;;19.48;66.15
13695;BME280;6919;52.344;14.518;2022-07-17T09:19:27;101810.16;;;19.07;66.21
13695;BME280;6919;52.344;14.518;2022-07-17T09:22:12;101797.34;;;19.61;66.27
13695;BME280;6919;52.344;14.518;2022-07-17T09:24:44;101799.91;;;19.17;68.00
13695;BME280;6919;52.344;14.518;2022-07-17T09:27:15;101802.88;;;19.00;69.80
13695;BME280;6919;52.344;14.518;2022-07-17T09:29:57;101800.28;;;19.74;67.12
13695;BME280;6919;52.344;14.518;2022-07-17T09:32:30;101802.31;;;19.35;68.04
13695;BME280;6919;52.344;14.518;2022-07-17T09:35:00;101796.69;;;19.59;65.20
13695;BME280;6919;52.344;14.518;2022-07-17T09:37:31;101797.97;;;19.26;65.30
13695;BME280;6919;52.344;14.518;2022-07-17T09:39:59;101809.53;;;19.28;66.44
13695;BME280;6919;52.344;14.518;2022-07-17T09:42:31;101805.66;;;19.45;65.55
13695;BME280;6919;52.344;14.518;2022-07-17T09:45:03;101800.44;;;19.13;65.80
13695;BME280;6919;52.344;14.518;2022-07-17T09:47:36;101804.03;;;19.05;64.90
13695;BME280;6919;52.344;14.518;2022-07-17T09:50:07;101797.38;;;19.75;64.98
13695;BME280;6919;52.344;14.518;2022-07-17T09:52:37;101794.69;;;20.04;64.37
13695;BME280;6919;52.344;14.518;2022-07-17T09:55:06;101793.28;;;18.51;69.39
13695;BME280;6919;52.344;14.518;2022-07-17T09:57:55;101796.53;;;18.85;71.64
13695;BME280;6919;52.344;14.518;2022-07-17T10:00:26;101781.31;;;18.68;72.07
13695;BME280;6919;52.344;14.518;2022-07-17T10:02:55;101790.13;;;18.78;72.58
13695;BME280;6919;52.344;14.518;2022-07-17T10:05:24;101793.25;;;19.65;67.64
13695;BME280;6919;52.344;14.518;2022-07-17T10:07:53;101796.72;;;20.10;63.40
13695;BME280;6919;52.344;14.518;2022-07-17T10:10:21;101796.88;;;20.09;62.03
13695;BME280;6919;52.344;14.518;2022-07-17T10:12:51;101789.03;;;19.77;63.43
13695;BME280;6919;52.344;14.518;2022-07-17T10:15:25;101785.47;;;19.91;63.48
13695;BME280;6919;52.344;14.518;2022-07-17T10:18:04;101787.38;;;19.53;65.49
13695;BME280;6919;52.344;14.518;2022-07-17T10:20:33;101794.41;;;19.48;64.64
13695;BME280;6919;52.344;14.518;2022-07-17T10:23:12;101783.72;;;19.46;65.53
13695;BME280;6919;52.344;14.518;2022-07-17T10:25:41;101782.81;;;19.01;67.97
13695;BME280;6919;52.344;14.518;2022-07-17T10:28:10;101782.78;;;19.09;69.34
13695;BME280;6919;52.344;14.518;2022-07-17T10:30:42;101790.03;;;19.39;68.84
13695;BME280;6919;52.344;14.518;2022-07-17T10:33:16;101795.81;;;19.95;66.75
13695;BME280;6919;52.344;14.518;2022-07-17T10:35:48;101790.47;;;20.60;60.02
13695;BME280;6919;52.344;14.518;2022-07-17T10:38:16;101791.63;;;21.01;59.61
13695;BME280;6919;52.344;14.518;2022-07-17T10:40:47;101786.81;;;20.68;60.14
13695;BME280;6919;52.344;14.518;2022-07-17T10:43:26;101798.50;;;20.97;58.76
13695;BME280;6919;52.344;14.518;2022-07-17T10:45:56;101794.16;;;20.53;59.21
13695;BME280;6919;52.344;14.518;2022-07-17T10:48:24;101803.00;;;20.90;57.34
13695;BME280;6919;52.344;14.518;2022-07-17T10:50:56;101798.50;;;20.97;59.02
13695;BME280;6919;52.344;14.518;2022-07-17T10:53:28;101799.25;;;20.91;56.76
13695;BME280;6919;52.344;14.518;2022-07-17T10:55:59;101795.28;;;21.50;55.83
13695;BME280;6919;52.344;14.518;2022-07-17T10:58:31;101785.66;;;19.89;57.81
13695;BME280;6919;52.344;14.518;2022-07-17T11:01:06;101798.91;;;20.94;57.84
13695;BME280;6919;52.344;14.518;2022-07-17T11:03:42;101789.25;;;21.55;55.82
13695;BME280;6919;52.344;14.518;2022-07-17T11:06:17;101794.78;;;20.69;53.24
13695;BME280;6919;52.344;14.518;2022-07-17T11:08:50;101787.03;;;21.02;54.13
13695;BME280;6919;52.344;14.518;2022-07-17T11:11:21;101786.38;;;21.90;55.41
13695;BME280;6919;52.344;14.518;2022-07-17T11:14:08;101789.91;;;22.12;52.86
13695;BME280;6919;52.344;14.518;2022-07-17T11:16:45;101795.38;;;22.12;53.55
13695;BME280;6919;52.344;14.518;2022-07-17T11:19:21;101785.66;;;21.12;54.67
13695;BME280;6919;52.344;14.518;2022-07-17T11:21:51;101793.78;;;21.48;54.78
13695;BME280;6919;52.344;14.518;2022-07-17T11:24:20;101790.22;;;21.96;53.49
13695;BME280;6919;52.344;14.518;2022-07-17T11:26:50;101787.13;;;22.86;49.43
13695;BME280;6919;52.344;14.518;2022-07-17T11:29:19;101791.00;;;23.12;48.54
13695;BME280;6919;52.344;14.518;2022-07-17T11:31:55;101796.31;;;22.66;50.12
13695;BME280;6919;52.344;14.518;2022-07-17T11:34:25;101791.53;;;22.74;51.50
13695;BME280;6919;52.344;14.518;2022-07-17T11:37:00;101789.16;;;21.06;52.56
13695;BME280;6919;52.344;14.518;2022-07-17T11:39:38;101791.41;;;22.14;52.52
13695;BME280;6919;52.344;14.518;2022-07-17T11:42:09;101780.94;;;22.24;53.07
13695;BME280;6919;52.344;14.518;2022-07-17T11:44:39;101783.66;;;23.19;49.68
13695;BME280;6919;52.344;14.518;2022-07-17T11:47:09;101789.84;;;22.73;48.06
13695;BME280;6919;52.344;14.518;2022-07-17T11:49:39;101789.22;;;23.45;47.43
13695;BME280;6919;52.344;14.518;2022-07-17T11:52:11;101789.63;;;24.00;46.32
13695;BME280;6919;52.344;14.518;2022-07-17T11:54:47;101789.63;;;23.35;45.92
13695;BME280;6919;52.344;14.518;2022-07-17T11:57:18;101773.47;;;22.05;48.67
13695;BME280;6919;52.344;14.518;2022-07-17T11:59:49;101772.56;;;21.71;50.89
13695;BME280;6919;52.344;14.518;2022-07-17T12:02:22;101778.75;;;21.79;49.31
13695;BME280;6919;52.344;14.518;2022-07-17T12:04:59;101771.69;;;22.25;48.51
13695;BME280;6919;52.344;14.518;2022-07-17T12:07:41;101775.13;;;22.81;47.13
13695;BME280;6919;52.344;14.518;2022-07-17T12:10:18;101782.22;;;23.23;46.96
13695;BME280;6919;52.344;14.518;2022-07-17T12:12:54;101779.69;;;23.34;44.54
13695;BME280;6919;52.344;14.518;2022-07-17T12:15:36;101776.94;;;23.21;44.20
13695;BME280;6919;52.344;14.518;2022-07-17T12:18:20;101767.81;;;22.95;46.45
13695;BME280;6919;52.344;14.518;2022-07-17T12:20:51;101768.56;;;23.94;44.86
13695;BME280;6919;52.344;14.518;2022-07-17T12:23:30;101760.34;;;24.71;42.69
13695;BME280;6919;52.344;14.518;2022-07-17T12:26:04;101763.84;;;24.34;43.09
13695;BME280;6919;52.344;14.518;2022-07-17T12:28:33;101762.09;;;24.52;42.16
13695;BME280;6919;52.344;14.518;2022-07-17T12:31:02;101762.22;;;24.07;42.68
13695;BME280;6919;52.344;14.518;2022-07-17T12:33:32;101760.59;;;22.33;44.43
13695;BME280;6919;52.344;14.518;2022-07-17T12:36:00;101757.03;;;22.73;45.59
13695;BME280;6919;52.344;14.518;2022-07-17T12:38:29;101750.31;;;22.76;45.46
13695;BME280;6919;52.344;14.518;2022-07-17T12:40:57;101752.94;;;24.01;43.11
13695;BME280;6919;52.344;14.518;2022-07-17T12:43:26;101751.47;;;24.12;42.88
13695;BME280;6919;52.344;14.518;2022-07-17T12:45:54;101753.38;;;24.62;40.40
13695;BME280;6919;52.344;14.518;2022-07-17T12:48:34;101754.41;;;24.74;40.94
13695;BME280;6919;52.344;14.518;2022-07-17T12:51:03;101755.81;;;24.32;40.09
13695;BME280;6919;52.344;14.518;2022-07-17T12:53:31;101748.84;;;24.43;39.58
13695;BME280;6919;52.344;14.518;2022-07-17T12:56:00;101743.97;;;24.45;39.14
13695;BME280;6919;52.344;14.518;2022-07-17T12:58:28;101745.47;;;24.85;38.79
13695;BME280;6919;52.344;14.518;2022-07-17T13:00:56;101754.66;;;24.66;38.83